CCA908 LEMD-ZBAA
Flight info
| Callsign | CCA908 |
|---|---|
| Flight time | N/A |
| Altitude | 32000 |
| Route | PINAR N870 SEGRE N871 TOPTU DCT TOU DCT GAI DCT MEN DCT NINUN DCT LATAM DCT ETREK DCT LTP DCT SOPLO DCT OMASI DCT KINNI DCT SOSAL DCT KORED DCT GAMSA/N0489F330 DCT KONIN DCT BEPAS DCT OKL DCT LEGAZ DCT LAGAR DCT POLON DCT BOKSU DCT LAFAT/K0900F330 DCT INKUZ DCT BENIM DCT RATIN N869 INLAL/K0896F350 N869 BAPUN P874 DIKIN M61 SUMOM P983 ABESA L158 SURUB/K0885F370 L158 TR A308 GINOM/K0883S1130 Y655 INTIK A575 LHT B458 BIKUT W69 GUVBA GUVBA4E |
| Aircraft | B77W/H-SDE1E2E3FGHIJ2J3J4J5M1RWXY/LB1D1 |
Departure
| Time | 2026-05-01 12:26 |
|---|---|
| Airport | Adolfo Suárez Madrid–Barajas Airport (LEMD) |
Arrival
| Time | N/A |
|---|---|
| Airport | Beijing Capital International Airport (ZBAA) |
| Time | Latitude | Longitude | Altitude | Speed | Heading |
|---|---|---|---|---|---|
| 2026-05-01 11:41 | 40.46240 | -3.56943 | 1974 ft | 0 kts | 311° |
| 2026-05-01 12:03 | 40.46238 | -3.56941 | 1974 ft | 1 kts | 311° |
| 2026-05-01 12:04 | 40.46228 | -3.56927 | 1974 ft | 2 kts | 311° |
| 2026-05-01 12:04 | 40.46218 | -3.56912 | 1974 ft | 2 kts | 312° |
| 2026-05-01 12:04 | 40.46207 | -3.56900 | 1974 ft | 2 kts | 341° |
| 2026-05-01 12:04 | 40.46192 | -3.56897 | 1974 ft | 2 kts | 7° |
| 2026-05-01 12:05 | 40.46178 | -3.56903 | 1974 ft | 2 kts | 31° |
| 2026-05-01 12:05 | 40.46157 | -3.56930 | 1974 ft | 2 kts | 48° |
| 2026-05-01 12:05 | 40.46148 | -3.56944 | 1974 ft | 0 kts | 45° |
| 2026-05-01 12:06 | 40.46147 | -3.56945 | 1974 ft | 0 kts | 45° |
| 2026-05-01 12:11 | 40.46206 | -3.56871 | 1974 ft | 14 kts | 42° |
| 2026-05-01 12:11 | 40.46287 | -3.56764 | 1974 ft | 19 kts | 58° |
| 2026-05-01 12:11 | 40.46325 | -3.56620 | 1974 ft | 13 kts | 38° |
| 2026-05-01 12:12 | 40.46406 | -3.56597 | 1974 ft | 10 kts | 4° |
| 2026-05-01 12:12 | 40.46485 | -3.56589 | 1974 ft | 12 kts | 4° |
| 2026-05-01 12:12 | 40.46574 | -3.56579 | 1974 ft | 13 kts | 4° |
| 2026-05-01 12:12 | 40.46672 | -3.56572 | 1974 ft | 14 kts | 1° |
| 2026-05-01 12:13 | 40.46776 | -3.56565 | 1974 ft | 15 kts | 3° |
| 2026-05-01 12:13 | 40.46886 | -3.56555 | 1974 ft | 16 kts | 4° |
| 2026-05-01 12:13 | 40.47003 | -3.56551 | 1974 ft | 17 kts | 354° |
| 2026-05-01 12:13 | 40.47116 | -3.56598 | 1974 ft | 17 kts | 328° |
| 2026-05-01 12:14 | 40.47218 | -3.56693 | 1974 ft | 18 kts | 324° |
| 2026-05-01 12:14 | 40.47319 | -3.56796 | 1974 ft | 18 kts | 322° |
| 2026-05-01 12:14 | 40.47424 | -3.56900 | 1974 ft | 19 kts | 323° |
| 2026-05-01 12:14 | 40.47528 | -3.57009 | 1974 ft | 19 kts | 323° |
| 2026-05-01 12:15 | 40.47636 | -3.57117 | 1974 ft | 19 kts | 322° |
| 2026-05-01 12:15 | 40.47744 | -3.57230 | 1974 ft | 20 kts | 317° |
| 2026-05-01 12:15 | 40.47854 | -3.57346 | 1974 ft | 20 kts | 322° |
| 2026-05-01 12:15 | 40.47965 | -3.57458 | 1974 ft | 20 kts | 323° |
| 2026-05-01 12:16 | 40.48083 | -3.57572 | 1974 ft | 20 kts | 323° |
| 2026-05-01 12:16 | 40.48195 | -3.57693 | 1974 ft | 21 kts | 320° |
| 2026-05-01 12:16 | 40.48312 | -3.57812 | 1974 ft | 21 kts | 323° |
| 2026-05-01 12:16 | 40.48433 | -3.57924 | 1974 ft | 21 kts | 326° |
| 2026-05-01 12:17 | 40.48562 | -3.58026 | 1974 ft | 21 kts | 335° |
| 2026-05-01 12:17 | 40.48669 | -3.58051 | 1974 ft | 11 kts | 359° |
| 2026-05-01 12:17 | 40.48724 | -3.58051 | 1974 ft | 6 kts | 359° |
| 2026-05-01 12:17 | 40.48767 | -3.58051 | 1974 ft | 7 kts | 360° |
| 2026-05-01 12:18 | 40.48823 | -3.58045 | 1974 ft | 9 kts | 13° |
| 2026-05-01 12:18 | 40.48859 | -3.57984 | 1974 ft | 10 kts | 88° |
| 2026-05-01 12:18 | 40.48858 | -3.57875 | 1974 ft | 13 kts | 90° |
| 2026-05-01 12:18 | 40.48857 | -3.57748 | 1974 ft | 14 kts | 89° |
| 2026-05-01 12:19 | 40.48860 | -3.57602 | 1974 ft | 16 kts | 89° |
| 2026-05-01 12:19 | 40.48859 | -3.57442 | 1974 ft | 18 kts | 91° |
| 2026-05-01 12:19 | 40.48861 | -3.57269 | 1974 ft | 19 kts | 86° |
| 2026-05-01 12:19 | 40.48861 | -3.57085 | 1974 ft | 20 kts | 90° |
| 2026-05-01 12:20 | 40.48860 | -3.56889 | 1974 ft | 22 kts | 90° |
| 2026-05-01 12:20 | 40.48860 | -3.56684 | 1974 ft | 23 kts | 88° |
| 2026-05-01 12:20 | 40.48862 | -3.56490 | 1974 ft | 14 kts | 90° |
| 2026-05-01 12:20 | 40.48861 | -3.56351 | 1974 ft | 12 kts | 90° |
| 2026-05-01 12:21 | 40.48898 | -3.56254 | 1974 ft | 13 kts | 21° |
| 2026-05-01 12:21 | 40.49007 | -3.56243 | 1974 ft | 18 kts | 0° |
| 2026-05-01 12:21 | 40.49160 | -3.56241 | 1974 ft | 24 kts | 360° |
| 2026-05-01 12:21 | 40.49351 | -3.56238 | 1974 ft | 30 kts | 1° |
| 2026-05-01 12:22 | 40.49576 | -3.56246 | 1974 ft | 34 kts | 0° |
| 2026-05-01 12:22 | 40.49707 | -3.56246 | 1974 ft | 13 kts | 359° |
| 2026-05-01 12:22 | 40.49794 | -3.56247 | 1974 ft | 11 kts | 359° |
| 2026-05-01 12:22 | 40.49833 | -3.56247 | 1974 ft | 5 kts | 360° |
| 2026-05-01 12:23 | 40.49875 | -3.56247 | 1974 ft | 6 kts | 0° |
| 2026-05-01 12:23 | 40.49920 | -3.56231 | 1974 ft | 6 kts | 38° |
| 2026-05-01 12:23 | 40.49937 | -3.56172 | 1974 ft | 7 kts | 78° |
| 2026-05-01 12:23 | 40.49945 | -3.56101 | 1974 ft | 8 kts | 81° |
| 2026-05-01 12:24 | 40.49957 | -3.56025 | 1974 ft | 8 kts | 70° |
| 2026-05-01 12:24 | 40.50003 | -3.55950 | 1974 ft | 12 kts | 34° |
| 2026-05-01 12:24 | 40.50082 | -3.55921 | 1974 ft | 9 kts | 1° |
| 2026-05-01 12:24 | 40.50144 | -3.55919 | 1974 ft | 10 kts | 0° |
| 2026-05-01 12:25 | 40.50375 | -3.55919 | 1975 ft | 61 kts | 360° |
| 2026-05-01 12:25 | 40.51967 | -3.55933 | 1976 ft | 162 kts | 360° |
| 2026-05-01 12:25 | 40.53270 | -3.55933 | 2076 ft | 202 kts | 359° |
| 2026-05-01 12:26 | 40.54607 | -3.55909 | 2393 ft | 191 kts | 3° |
| 2026-05-01 12:26 | 40.57297 | -3.54552 | 3277 ft | 209 kts | 25° |
| 2026-05-01 12:26 | 40.58676 | -3.53845 | 3541 ft | 223 kts | 22° |
| 2026-05-01 12:27 | 40.60098 | -3.52817 | 3479 ft | 251 kts | 39° |
| 2026-05-01 12:27 | 40.63057 | -3.49683 | 4177 ft | 278 kts | 40° |
| 2026-05-01 12:28 | 40.66035 | -3.46376 | 5380 ft | 286 kts | 41° |
| 2026-05-01 12:28 | 40.67549 | -3.44683 | 6011 ft | 288 kts | 41° |
| 2026-05-01 12:28 | 40.70620 | -3.41247 | 7196 ft | 294 kts | 41° |
| 2026-05-01 12:29 | 40.72173 | -3.39507 | 7773 ft | 297 kts | 41° |
| 2026-05-01 12:29 | 40.73758 | -3.37731 | 8369 ft | 299 kts | 41° |
| 2026-05-01 12:29 | 40.76927 | -3.34175 | 9534 ft | 303 kts | 41° |
| 2026-05-01 12:30 | 40.80170 | -3.30531 | 10410 ft | 318 kts | 41° |
| 2026-05-01 12:30 | 40.81915 | -3.28569 | 10621 ft | 335 kts | 41° |
| 2026-05-01 12:30 | 40.83608 | -3.26391 | 10810 ft | 350 kts | 51° |
| 2026-05-01 12:31 | 40.85070 | -3.23710 | 10987 ft | 367 kts | 61° |
| 2026-05-01 12:31 | 40.86163 | -3.20632 | 11196 ft | 382 kts | 72° |
| 2026-05-01 12:31 | 40.86910 | -3.17192 | 11571 ft | 393 kts | 76° |
| 2026-05-01 12:31 | 40.87586 | -3.13706 | 12224 ft | 396 kts | 77° |
| 2026-05-01 12:32 | 40.88271 | -3.10181 | 12909 ft | 398 kts | 76° |
| 2026-05-01 12:32 | 40.89657 | -3.03072 | 14075 ft | 407 kts | 76° |
| 2026-05-01 12:32 | 40.90363 | -2.99455 | 14686 ft | 411 kts | 76° |
| 2026-05-01 12:33 | 40.91077 | -2.95799 | 15300 ft | 414 kts | 76° |
| 2026-05-01 12:33 | 40.91803 | -2.92077 | 15903 ft | 418 kts | 76° |
| 2026-05-01 12:33 | 40.92527 | -2.88357 | 16500 ft | 421 kts | 76° |
| 2026-05-01 12:33 | 40.93251 | -2.84640 | 17076 ft | 425 kts | 76° |
| 2026-05-01 12:34 | 40.93988 | -2.80841 | 17654 ft | 428 kts | 76° |
| 2026-05-01 12:34 | 40.94731 | -2.77012 | 18213 ft | 431 kts | 76° |
| 2026-05-01 12:34 | 40.95473 | -2.73179 | 18782 ft | 434 kts | 76° |
| 2026-05-01 12:34 | 40.96215 | -2.69339 | 19302 ft | 438 kts | 76° |
| 2026-05-01 12:35 | 40.96967 | -2.65439 | 19826 ft | 441 kts | 76° |
| 2026-05-01 12:35 | 40.97731 | -2.61468 | 20384 ft | 444 kts | 76° |
| 2026-05-01 12:35 | 40.98491 | -2.57508 | 20890 ft | 447 kts | 76° |
| 2026-05-01 12:35 | 40.99254 | -2.53519 | 21346 ft | 452 kts | 76° |
| 2026-05-01 12:36 | 41.00024 | -2.49485 | 21839 ft | 455 kts | 76° |
| 2026-05-01 12:36 | 41.00806 | -2.45426 | 22318 ft | 458 kts | 75° |
| 2026-05-01 12:36 | 41.01894 | -2.41508 | 22769 ft | 462 kts | 65° |
| 2026-05-01 12:36 | 41.03481 | -2.37799 | 23215 ft | 466 kts | 56° |
| 2026-05-01 12:37 | 41.05528 | -2.34458 | 23688 ft | 469 kts | 46° |
| 2026-05-01 12:37 | 41.07966 | -2.31555 | 24131 ft | 472 kts | 39° |
| 2026-05-01 12:37 | 41.10527 | -2.28832 | 24557 ft | 475 kts | 39° |
| 2026-05-01 12:37 | 41.13089 | -2.26126 | 24931 ft | 479 kts | 39° |
| 2026-05-01 12:38 | 41.15708 | -2.23354 | 25283 ft | 482 kts | 39° |
| 2026-05-01 12:38 | 41.18327 | -2.20576 | 25681 ft | 485 kts | 39° |
| 2026-05-01 12:38 | 41.20960 | -2.17777 | 26090 ft | 487 kts | 39° |
| 2026-05-01 12:38 | 41.23604 | -2.14961 | 26488 ft | 490 kts | 38° |
| 2026-05-01 12:39 | 41.26254 | -2.12135 | 26878 ft | 492 kts | 38° |
| 2026-05-01 12:39 | 41.28931 | -2.09277 | 27250 ft | 495 kts | 38° |
| 2026-05-01 12:39 | 41.31611 | -2.06411 | 27602 ft | 498 kts | 38° |
| 2026-05-01 12:39 | 41.34311 | -2.03521 | 27959 ft | 500 kts | 38° |
| 2026-05-01 12:40 | 41.37015 | -2.00622 | 28334 ft | 503 kts | 38° |
| 2026-05-01 12:40 | 41.39737 | -1.97700 | 28696 ft | 505 kts | 38° |
| 2026-05-01 12:40 | 41.42464 | -1.94770 | 29070 ft | 507 kts | 38° |
| 2026-05-01 12:40 | 41.45202 | -1.91823 | 29440 ft | 508 kts | 38° |
| 2026-05-01 12:41 | 41.47944 | -1.88871 | 29823 ft | 510 kts | 38° |
| 2026-05-01 12:41 | 41.50689 | -1.85910 | 30289 ft | 509 kts | 38° |
| 2026-05-01 12:41 | 41.53451 | -1.82928 | 30816 ft | 506 kts | 38° |
| 2026-05-01 12:41 | 41.56157 | -1.80004 | 31179 ft | 507 kts | 38° |
| 2026-05-01 12:42 | 41.61673 | -1.74032 | 31197 ft | 506 kts | 38° |
| 2026-05-01 12:42 | 41.67155 | -1.68084 | 31199 ft | 506 kts | 38° |
| 2026-05-01 12:43 | 41.72596 | -1.62166 | 31197 ft | 506 kts | 38° |
| 2026-05-01 12:43 | 41.78032 | -1.56241 | 31188 ft | 505 kts | 38° |
| 2026-05-01 12:44 | 41.83472 | -1.50297 | 31181 ft | 505 kts | 38° |
| 2026-05-01 12:45 | 41.94337 | -1.38387 | 31172 ft | 505 kts | 38° |
| 2026-05-01 12:45 | 41.99773 | -1.32408 | 31165 ft | 504 kts | 39° |
| 2026-05-01 12:46 | 42.05180 | -1.26446 | 31168 ft | 505 kts | 39° |
| 2026-05-01 12:46 | 42.10589 | -1.20470 | 31169 ft | 504 kts | 39° |
| 2026-05-01 12:47 | 42.16009 | -1.14469 | 31175 ft | 505 kts | 39° |
| 2026-05-01 12:47 | 42.21437 | -1.08444 | 31178 ft | 506 kts | 39° |
| 2026-05-01 12:48 | 42.26841 | -1.02434 | 31181 ft | 505 kts | 39° |
| 2026-05-01 12:48 | 42.32259 | -0.96393 | 31188 ft | 507 kts | 39° |
| 2026-05-01 12:49 | 42.37704 | -0.90309 | 31191 ft | 507 kts | 39° |
| 2026-05-01 12:49 | 42.42974 | -0.84065 | 31194 ft | 507 kts | 47° |
| 2026-05-01 12:50 | 42.47379 | -0.76645 | 31200 ft | 507 kts | 52° |
| 2026-05-01 12:50 | 42.51683 | -0.69069 | 31216 ft | 508 kts | 52° |
| 2026-05-01 12:51 | 42.55959 | -0.61523 | 31207 ft | 508 kts | 52° |
| 2026-05-01 12:52 | 42.62397 | -0.50129 | 31223 ft | 508 kts | 52° |
| 2026-05-01 12:52 | 42.68814 | -0.38728 | 31224 ft | 508 kts | 52° |
| 2026-05-01 12:53 | 42.75201 | -0.27337 | 31216 ft | 507 kts | 53° |
| 2026-05-01 12:54 | 42.79465 | -0.19709 | 31229 ft | 508 kts | 53° |
| 2026-05-01 12:54 | 42.86150 | -0.08502 | 31233 ft | 508 kts | 51° |
| 2026-05-01 12:55 | 42.92856 | 0.02627 | 31236 ft | 509 kts | 51° |
| 2026-05-01 12:56 | 42.97338 | 0.10106 | 31223 ft | 508 kts | 51° |
| 2026-05-01 12:56 | 43.01818 | 0.17607 | 31224 ft | 509 kts | 51° |
| 2026-05-01 12:57 | 43.06254 | 0.25057 | 31227 ft | 507 kts | 51° |
| 2026-05-01 12:57 | 43.12936 | 0.36321 | 31211 ft | 508 kts | 51° |
| 2026-05-01 12:58 | 43.17368 | 0.43815 | 31209 ft | 508 kts | 51° |
| 2026-05-01 12:59 | 43.24062 | 0.55172 | 31187 ft | 508 kts | 51° |
| 2026-05-01 12:59 | 43.30709 | 0.66494 | 31185 ft | 508 kts | 51° |
| 2026-05-01 13:00 | 43.37368 | 0.77880 | 31182 ft | 508 kts | 51° |
| 2026-05-01 13:01 | 43.43970 | 0.89214 | 31179 ft | 508 kts | 51° |
| 2026-05-01 13:02 | 43.50624 | 1.00681 | 31171 ft | 509 kts | 51° |
| 2026-05-01 13:07 | 43.97402 | 1.86323 | 31194 ft | 506 kts | 55° |
| 2026-05-01 13:08 | 44.01388 | 1.94347 | 31196 ft | 506 kts | 55° |
| 2026-05-01 13:08 | 44.05396 | 2.02428 | 31197 ft | 505 kts | 55° |
| 2026-05-01 13:09 | 44.09369 | 2.10449 | 31208 ft | 508 kts | 55° |
| 2026-05-01 13:09 | 44.13371 | 2.18545 | 31203 ft | 508 kts | 55° |
| 2026-05-01 13:10 | 44.17351 | 2.26616 | 31217 ft | 508 kts | 55° |
| 2026-05-01 13:10 | 44.21345 | 2.34736 | 31224 ft | 507 kts | 55° |
| 2026-05-01 13:11 | 44.25312 | 2.42823 | 31222 ft | 507 kts | 55° |
| 2026-05-01 13:11 | 44.29260 | 2.50890 | 31232 ft | 508 kts | 55° |
| 2026-05-01 13:12 | 44.33246 | 2.59059 | 31241 ft | 508 kts | 55° |
| 2026-05-01 13:12 | 44.37201 | 2.67189 | 31243 ft | 509 kts | 56° |
| 2026-05-01 13:13 | 44.41182 | 2.75393 | 31238 ft | 509 kts | 56° |
| 2026-05-01 13:13 | 44.45127 | 2.83547 | 31242 ft | 510 kts | 56° |
| 2026-05-01 13:14 | 44.49070 | 2.91720 | 31243 ft | 509 kts | 56° |
| 2026-05-01 13:14 | 44.53020 | 2.99929 | 31248 ft | 510 kts | 55° |
| 2026-05-01 13:15 | 44.56970 | 3.08163 | 31254 ft | 510 kts | 55° |
| 2026-05-01 13:15 | 44.60856 | 3.16373 | 31250 ft | 509 kts | 58° |
| 2026-05-01 13:16 | 44.64381 | 3.25033 | 31259 ft | 510 kts | 60° |
| 2026-05-01 13:16 | 44.67839 | 3.33671 | 31261 ft | 509 kts | 60° |
| 2026-05-01 13:17 | 44.74746 | 3.50987 | 31274 ft | 509 kts | 60° |
| 2026-05-01 13:18 | 44.79910 | 3.63998 | 31269 ft | 509 kts | 60° |
| 2026-05-01 13:18 | 44.83328 | 3.72643 | 31266 ft | 509 kts | 60° |
| 2026-05-01 13:19 | 44.86751 | 3.81326 | 31265 ft | 509 kts | 60° |
| 2026-05-01 13:20 | 44.91884 | 3.94397 | 31269 ft | 508 kts | 60° |
| 2026-05-01 13:20 | 44.95283 | 4.03088 | 31271 ft | 508 kts | 60° |
| 2026-05-01 13:21 | 45.00360 | 4.16119 | 31269 ft | 507 kts | 60° |
| 2026-05-01 13:21 | 45.03746 | 4.24845 | 31264 ft | 507 kts | 60° |
| 2026-05-01 13:22 | 45.07113 | 4.33546 | 31260 ft | 508 kts | 60° |
| 2026-05-01 13:22 | 45.10490 | 4.42303 | 31255 ft | 507 kts | 60° |
| 2026-05-01 13:23 | 45.13850 | 4.51045 | 31249 ft | 506 kts | 60° |
| 2026-05-01 13:23 | 45.17197 | 4.59779 | 31247 ft | 507 kts | 60° |
| 2026-05-01 13:24 | 45.20551 | 4.68557 | 31239 ft | 507 kts | 61° |
| 2026-05-01 13:25 | 45.25537 | 4.81663 | 31220 ft | 507 kts | 61° |
| 2026-05-01 13:25 | 45.28866 | 4.90448 | 31222 ft | 506 kts | 61° |
| 2026-05-01 13:26 | 45.32194 | 4.99260 | 31215 ft | 506 kts | 61° |
| 2026-05-01 13:26 | 45.35484 | 5.07996 | 31227 ft | 505 kts | 61° |
| 2026-05-01 13:27 | 45.38779 | 5.16774 | 31248 ft | 505 kts | 61° |
| 2026-05-01 13:27 | 45.43699 | 5.29936 | 31264 ft | 504 kts | 61° |
| 2026-05-01 13:28 | 45.48824 | 5.42917 | 31252 ft | 502 kts | 52° |
| 2026-05-01 13:29 | 45.53669 | 5.50055 | 31259 ft | 502 kts | 41° |
| 2026-05-01 13:29 | 45.58868 | 5.56663 | 31252 ft | 502 kts | 40° |
| 2026-05-01 13:31 | 45.74419 | 5.76571 | 31233 ft | 501 kts | 41° |
| 2026-05-01 13:32 | 45.87368 | 5.93231 | 31246 ft | 501 kts | 42° |
| 2026-05-01 13:33 | 46.00253 | 6.09923 | 31250 ft | 498 kts | 42° |
| 2026-05-01 13:34 | 46.10476 | 6.23302 | 31249 ft | 496 kts | 44° |
| 2026-05-01 13:35 | 46.17827 | 6.33793 | 31263 ft | 496 kts | 45° |
| 2026-05-01 13:36 | 46.25172 | 6.44301 | 31276 ft | 497 kts | 44° |
| 2026-05-01 13:36 | 46.32513 | 6.54823 | 31296 ft | 497 kts | 44° |
| 2026-05-01 13:37 | 46.37399 | 6.61843 | 31289 ft | 497 kts | 45° |
| 2026-05-01 13:37 | 46.42256 | 6.68837 | 31288 ft | 494 kts | 45° |
| 2026-05-01 13:38 | 46.49535 | 6.79355 | 31281 ft | 492 kts | 45° |
| 2026-05-01 13:39 | 46.54357 | 6.86344 | 31296 ft | 491 kts | 45° |
| 2026-05-01 13:39 | 46.58794 | 6.93793 | 31311 ft | 489 kts | 51° |
| 2026-05-01 13:40 | 46.63062 | 7.01483 | 31301 ft | 490 kts | 51° |
| 2026-05-01 13:40 | 46.67327 | 7.09186 | 31297 ft | 490 kts | 51° |
| 2026-05-01 13:41 | 46.71601 | 7.16924 | 31292 ft | 489 kts | 51° |
| 2026-05-01 13:41 | 46.75827 | 7.24595 | 31287 ft | 489 kts | 51° |
| 2026-05-01 13:42 | 46.80067 | 7.32313 | 31282 ft | 490 kts | 51° |
| 2026-05-01 13:42 | 46.84198 | 7.40172 | 31275 ft | 488 kts | 58° |
| 2026-05-01 13:43 | 46.87051 | 7.49129 | 31273 ft | 486 kts | 68° |
| 2026-05-01 13:43 | 46.89444 | 7.58278 | 31275 ft | 485 kts | 68° |
| 2026-05-01 13:44 | 46.91827 | 7.67453 | 31287 ft | 486 kts | 69° |
| 2026-05-01 13:44 | 46.94208 | 7.76664 | 31291 ft | 484 kts | 69° |
| 2026-05-01 13:45 | 46.96583 | 7.85891 | 31290 ft | 485 kts | 69° |
| 2026-05-01 13:45 | 46.98934 | 7.95064 | 31288 ft | 485 kts | 69° |
| 2026-05-01 13:46 | 47.01289 | 8.04289 | 31289 ft | 485 kts | 69° |
| 2026-05-01 13:46 | 47.03639 | 8.13534 | 31291 ft | 485 kts | 68° |
| 2026-05-01 13:47 | 47.05976 | 8.22766 | 31292 ft | 483 kts | 68° |
| 2026-05-01 13:47 | 47.08288 | 8.31936 | 31291 ft | 483 kts | 68° |
| 2026-05-01 13:48 | 47.10611 | 8.41186 | 31290 ft | 483 kts | 68° |
| 2026-05-01 13:48 | 47.12917 | 8.50407 | 31290 ft | 482 kts | 68° |
| 2026-05-01 13:49 | 47.15207 | 8.59601 | 31290 ft | 482 kts | 68° |
| 2026-05-01 13:49 | 47.17508 | 8.68876 | 31289 ft | 481 kts | 69° |
| 2026-05-01 13:50 | 47.19783 | 8.78084 | 31299 ft | 480 kts | 69° |
| 2026-05-01 13:50 | 47.22047 | 8.87284 | 31303 ft | 480 kts | 69° |
| 2026-05-01 13:51 | 47.24301 | 8.96484 | 31306 ft | 480 kts | 69° |
| 2026-05-01 13:51 | 47.26554 | 9.05718 | 31310 ft | 480 kts | 69° |
| 2026-05-01 13:52 | 47.28809 | 9.14998 | 31318 ft | 479 kts | 69° |
| 2026-05-01 13:52 | 47.31044 | 9.24232 | 31318 ft | 478 kts | 69° |
| 2026-05-01 13:53 | 47.33284 | 9.33529 | 31305 ft | 477 kts | 69° |
| 2026-05-01 13:53 | 47.36627 | 9.47474 | 31281 ft | 476 kts | 69° |
| 2026-05-01 13:54 | 47.38830 | 9.56714 | 31274 ft | 476 kts | 68° |
| 2026-05-01 13:54 | 47.41012 | 9.65901 | 31276 ft | 476 kts | 69° |
| 2026-05-01 13:55 | 47.43436 | 9.74991 | 31278 ft | 476 kts | 66° |
| 2026-05-01 13:55 | 47.45881 | 9.83999 | 31288 ft | 475 kts | 66° |
| 2026-05-01 13:56 | 47.48309 | 9.93015 | 31308 ft | 474 kts | 66° |
| 2026-05-01 13:56 | 47.50741 | 10.02106 | 31318 ft | 473 kts | 66° |
| 2026-05-01 13:57 | 47.52739 | 10.09613 | 31314 ft | 473 kts | 66° |
| 2026-05-01 13:57 | 47.55546 | 10.20205 | 31304 ft | 473 kts | 66° |
| 2026-05-01 13:58 | 47.57951 | 10.29322 | 31308 ft | 473 kts | 66° |
| 2026-05-01 13:58 | 47.60338 | 10.38413 | 31303 ft | 472 kts | 66° |
| 2026-05-01 13:59 | 47.62717 | 10.47506 | 31307 ft | 472 kts | 66° |
| 2026-05-01 13:59 | 47.65100 | 10.56652 | 31304 ft | 472 kts | 66° |
| 2026-05-01 14:00 | 47.67476 | 10.65808 | 31306 ft | 472 kts | 67° |
| 2026-05-01 14:00 | 47.69815 | 10.74856 | 31313 ft | 470 kts | 67° |
| 2026-05-01 14:01 | 47.72147 | 10.83911 | 31311 ft | 470 kts | 67° |
| 2026-05-01 14:01 | 47.74463 | 10.92945 | 31315 ft | 470 kts | 67° |
| 2026-05-01 14:02 | 47.76785 | 11.02033 | 31303 ft | 470 kts | 67° |
| 2026-05-01 14:02 | 47.79113 | 11.11182 | 31299 ft | 469 kts | 67° |
| 2026-05-01 14:03 | 47.81418 | 11.20282 | 31288 ft | 470 kts | 67° |
| 2026-05-01 14:03 | 47.83733 | 11.29453 | 31290 ft | 468 kts | 67° |
| 2026-05-01 14:04 | 47.86379 | 11.38259 | 31288 ft | 465 kts | 56° |
| 2026-05-01 14:04 | 47.89513 | 11.44741 | 31289 ft | 464 kts | 51° |
| 2026-05-01 14:05 | 47.94051 | 11.53662 | 31284 ft | 465 kts | 51° |
| 2026-05-01 14:05 | 47.97953 | 11.61393 | 31279 ft | 464 kts | 51° |
| 2026-05-01 14:06 | 48.01830 | 11.69113 | 31282 ft | 464 kts | 52° |
| 2026-05-01 14:06 | 48.05667 | 11.76784 | 31278 ft | 464 kts | 52° |
| 2026-05-01 14:07 | 48.09505 | 11.84484 | 31281 ft | 463 kts | 52° |
| 2026-05-01 14:08 | 48.15271 | 11.96097 | 31292 ft | 464 kts | 52° |
| 2026-05-01 14:08 | 48.19099 | 12.03835 | 31289 ft | 462 kts | 52° |
| 2026-05-01 14:09 | 48.22906 | 12.11552 | 31291 ft | 463 kts | 52° |
| 2026-05-01 14:09 | 48.26726 | 12.19321 | 31290 ft | 462 kts | 52° |
| 2026-05-01 14:10 | 48.30552 | 12.27122 | 31295 ft | 461 kts | 52° |
| 2026-05-01 14:10 | 48.34364 | 12.34917 | 31296 ft | 461 kts | 52° |
| 2026-05-01 14:11 | 48.38155 | 12.42692 | 31300 ft | 461 kts | 52° |
| 2026-05-01 14:11 | 48.43818 | 12.54348 | 31300 ft | 460 kts | 52° |
| 2026-05-01 14:12 | 48.47561 | 12.62080 | 31302 ft | 460 kts | 52° |
| 2026-05-01 14:12 | 48.51334 | 12.69898 | 31302 ft | 459 kts | 53° |
| 2026-05-01 14:13 | 48.54442 | 12.76352 | 31303 ft | 459 kts | 53° |
| 2026-05-01 14:13 | 48.58791 | 12.85413 | 31304 ft | 458 kts | 53° |
| 2026-05-01 14:14 | 48.62532 | 12.93230 | 31302 ft | 459 kts | 53° |
| 2026-05-01 14:14 | 48.66238 | 13.00996 | 31303 ft | 458 kts | 53° |
| 2026-05-01 14:15 | 48.69971 | 13.08841 | 31305 ft | 458 kts | 53° |
| 2026-05-01 14:15 | 48.73674 | 13.16647 | 31307 ft | 457 kts | 53° |
| 2026-05-01 14:16 | 48.77367 | 13.24456 | 31314 ft | 456 kts | 53° |
| 2026-05-01 14:16 | 48.81062 | 13.32289 | 31315 ft | 456 kts | 53° |
| 2026-05-01 14:17 | 48.84772 | 13.40178 | 31317 ft | 457 kts | 53° |
| 2026-05-01 14:17 | 48.88754 | 13.47786 | 31316 ft | 454 kts | 43° |
| 2026-05-01 14:18 | 48.93814 | 13.53501 | 31317 ft | 455 kts | 28° |
| 2026-05-01 14:18 | 48.98658 | 13.56688 | 31319 ft | 456 kts | 22° |
| 2026-05-01 14:19 | 49.05542 | 13.60797 | 31325 ft | 455 kts | 22° |
| 2026-05-01 14:19 | 49.11396 | 13.64361 | 31336 ft | 454 kts | 22° |
| 2026-05-01 14:20 | 49.20256 | 13.69825 | 31345 ft | 455 kts | 23° |
| 2026-05-01 14:21 | 49.26164 | 13.73498 | 31344 ft | 456 kts | 23° |
| 2026-05-01 14:21 | 49.32114 | 13.77213 | 31343 ft | 456 kts | 23° |
| 2026-05-01 14:22 | 49.40897 | 13.82719 | 31342 ft | 455 kts | 23° |
| 2026-05-01 14:22 | 49.46726 | 13.86387 | 31342 ft | 455 kts | 23° |
| 2026-05-01 14:23 | 49.52590 | 13.90087 | 31341 ft | 456 kts | 23° |
| 2026-05-01 14:23 | 49.58474 | 13.93809 | 31339 ft | 456 kts | 23° |
| 2026-05-01 14:24 | 49.64294 | 13.97501 | 31339 ft | 456 kts | 23° |
| 2026-05-01 14:24 | 49.70145 | 14.01222 | 31337 ft | 455 kts | 23° |
| 2026-05-01 14:25 | 49.76000 | 14.04955 | 31337 ft | 455 kts | 23° |
| 2026-05-01 14:25 | 49.81852 | 14.08697 | 31340 ft | 457 kts | 23° |
| 2026-05-01 14:26 | 49.90682 | 14.14361 | 31340 ft | 457 kts | 23° |
| 2026-05-01 14:27 | 49.96530 | 14.18124 | 31350 ft | 455 kts | 23° |
| 2026-05-01 14:27 | 50.02368 | 14.21891 | 31352 ft | 455 kts | 23° |
| 2026-05-01 14:28 | 50.11024 | 14.27936 | 31357 ft | 455 kts | 31° |
| 2026-05-01 14:28 | 50.16472 | 14.33020 | 31364 ft | 456 kts | 31° |
| 2026-05-01 14:29 | 50.21890 | 14.38115 | 31367 ft | 455 kts | 31° |
| 2026-05-01 14:30 | 50.32677 | 14.48301 | 31360 ft | 454 kts | 31° |
| 2026-05-01 14:31 | 50.40774 | 14.55983 | 31352 ft | 455 kts | 32° |
| 2026-05-01 14:31 | 50.46173 | 14.61123 | 31344 ft | 455 kts | 31° |
| 2026-05-01 14:32 | 50.51627 | 14.66329 | 31348 ft | 455 kts | 32° |
| 2026-05-01 14:32 | 50.57008 | 14.71480 | 31342 ft | 454 kts | 32° |
| 2026-05-01 14:33 | 50.62231 | 14.76992 | 31337 ft | 452 kts | 41° |
| 2026-05-01 14:33 | 50.66396 | 14.84388 | 31329 ft | 454 kts | 56° |
| 2026-05-01 14:34 | 50.69145 | 14.93293 | 31332 ft | 457 kts | 67° |
| 2026-05-01 14:34 | 50.71420 | 15.02675 | 31334 ft | 457 kts | 67° |
| 2026-05-01 14:35 | 50.73661 | 15.12012 | 31331 ft | 456 kts | 67° |
| 2026-05-01 14:35 | 50.75887 | 15.21346 | 31339 ft | 456 kts | 67° |
| 2026-05-01 14:36 | 50.78113 | 15.30734 | 31337 ft | 456 kts | 67° |
| 2026-05-01 14:36 | 50.80338 | 15.40029 | 31332 ft | 455 kts | 65° |
| 2026-05-01 14:37 | 50.82729 | 15.49267 | 31328 ft | 455 kts | 65° |
| 2026-05-01 14:37 | 50.85121 | 15.58555 | 31328 ft | 454 kts | 65° |
| 2026-05-01 14:38 | 50.87467 | 15.67730 | 31329 ft | 454 kts | 66° |
| 2026-05-01 14:38 | 50.89829 | 15.77014 | 31328 ft | 454 kts | 66° |
| 2026-05-01 14:39 | 50.92168 | 15.86257 | 31329 ft | 454 kts | 66° |
| 2026-05-01 14:39 | 50.94511 | 15.95560 | 31328 ft | 454 kts | 66° |
| 2026-05-01 14:40 | 50.96846 | 16.04867 | 31328 ft | 454 kts | 66° |
| 2026-05-01 14:40 | 50.99167 | 16.14159 | 31327 ft | 453 kts | 66° |
| 2026-05-01 14:41 | 51.01476 | 16.23440 | 31325 ft | 452 kts | 66° |
| 2026-05-01 14:41 | 51.03778 | 16.32734 | 31324 ft | 452 kts | 66° |
| 2026-05-01 14:42 | 51.06063 | 16.41999 | 31324 ft | 453 kts | 66° |
| 2026-05-01 14:42 | 51.08336 | 16.51254 | 31322 ft | 452 kts | 66° |
| 2026-05-01 14:43 | 51.10606 | 16.60534 | 31326 ft | 452 kts | 66° |
| 2026-05-01 14:43 | 51.12870 | 16.69832 | 31335 ft | 451 kts | 67° |
| 2026-05-01 14:44 | 51.15124 | 16.79127 | 31335 ft | 452 kts | 67° |
| 2026-05-01 14:44 | 51.18489 | 16.93074 | 31335 ft | 451 kts | 66° |
| 2026-05-01 14:45 | 51.21834 | 17.07032 | 31333 ft | 451 kts | 66° |
| 2026-05-01 14:46 | 51.24050 | 17.16327 | 31316 ft | 449 kts | 67° |
| 2026-05-01 14:46 | 51.27363 | 17.30296 | 31317 ft | 450 kts | 66° |
| 2026-05-01 14:47 | 51.29551 | 17.39572 | 31314 ft | 448 kts | 66° |
| 2026-05-01 14:48 | 51.32824 | 17.53525 | 31315 ft | 449 kts | 66° |
| 2026-05-01 14:48 | 51.36090 | 17.67540 | 31317 ft | 448 kts | 67° |
| 2026-05-01 14:49 | 51.40384 | 17.86105 | 31315 ft | 447 kts | 67° |
| 2026-05-01 14:50 | 51.44660 | 18.04752 | 31313 ft | 448 kts | 67° |
| 2026-05-01 14:51 | 51.47825 | 18.18665 | 31311 ft | 446 kts | 67° |
| 2026-05-01 14:52 | 51.51008 | 18.32747 | 31311 ft | 444 kts | 67° |
| 2026-05-01 14:53 | 51.54181 | 18.46881 | 31309 ft | 445 kts | 67° |
| 2026-05-01 14:53 | 51.56261 | 18.56198 | 31311 ft | 445 kts | 67° |
| 2026-05-01 14:54 | 51.58348 | 18.65586 | 31307 ft | 445 kts | 68° |
| 2026-05-01 14:54 | 51.60422 | 18.74961 | 31313 ft | 444 kts | 68° |
| 2026-05-01 14:55 | 51.62481 | 18.84309 | 31312 ft | 443 kts | 68° |
| 2026-05-01 14:55 | 51.64540 | 18.93702 | 31308 ft | 444 kts | 68° |
| 2026-05-01 14:56 | 51.66582 | 19.03054 | 31308 ft | 445 kts | 68° |
| 2026-05-01 14:56 | 51.68612 | 19.12398 | 31308 ft | 444 kts | 68° |
| 2026-05-01 14:57 | 51.70650 | 19.21820 | 31308 ft | 443 kts | 67° |
| 2026-05-01 14:57 | 51.73669 | 19.35862 | 31308 ft | 442 kts | 67° |
| 2026-05-01 14:58 | 51.75679 | 19.45260 | 31345 ft | 447 kts | 67° |
| 2026-05-01 14:58 | 51.76694 | 19.50023 | 31726 ft | 447 kts | 67° |
| 2026-05-01 14:58 | 51.77679 | 19.54661 | 32335 ft | 442 kts | 67° |
| 2026-05-01 14:59 | 51.78734 | 19.59309 | 32872 ft | 435 kts | 62° |
| 2026-05-01 14:59 | 51.80080 | 19.63597 | 33224 ft | 431 kts | 56° |
| 2026-05-01 14:59 | 51.83756 | 19.71205 | 33308 ft | 428 kts | 43° |
| 2026-05-01 15:00 | 51.90796 | 19.79823 | 33298 ft | 426 kts | 36° |
| 2026-05-01 15:01 | 51.95581 | 19.85585 | 33289 ft | 432 kts | 37° |
| 2026-05-01 15:01 | 52.00369 | 19.91515 | 33283 ft | 440 kts | 37° |
| 2026-05-01 15:02 | 52.05187 | 19.97577 | 33279 ft | 438 kts | 37° |
| 2026-05-01 15:02 | 52.09985 | 20.03668 | 33282 ft | 438 kts | 38° |
| 2026-05-01 15:03 | 52.14774 | 20.09783 | 33302 ft | 441 kts | 37° |
| 2026-05-01 15:03 | 52.19568 | 20.15930 | 33306 ft | 440 kts | 38° |
| 2026-05-01 15:04 | 52.24382 | 20.22126 | 33303 ft | 440 kts | 38° |
| 2026-05-01 15:04 | 52.29151 | 20.28284 | 33302 ft | 441 kts | 38° |
| 2026-05-01 15:05 | 52.33951 | 20.34500 | 33298 ft | 439 kts | 38° |
| 2026-05-01 15:05 | 52.38710 | 20.40681 | 33298 ft | 441 kts | 37° |
| 2026-05-01 15:06 | 52.43482 | 20.46897 | 33298 ft | 441 kts | 38° |
| 2026-05-01 15:06 | 52.48247 | 20.53123 | 33295 ft | 439 kts | 37° |
| 2026-05-01 15:07 | 52.53030 | 20.59389 | 33291 ft | 439 kts | 37° |
| 2026-05-01 15:07 | 52.57769 | 20.65615 | 33288 ft | 440 kts | 38° |
| 2026-05-01 15:08 | 52.62536 | 20.71898 | 33289 ft | 440 kts | 38° |
| 2026-05-01 15:08 | 52.67297 | 20.78188 | 33286 ft | 440 kts | 38° |
| 2026-05-01 15:09 | 52.72021 | 20.84450 | 33284 ft | 438 kts | 38° |
| 2026-05-01 15:09 | 52.76767 | 20.90758 | 33282 ft | 438 kts | 38° |
| 2026-05-01 15:10 | 52.81519 | 20.97091 | 33280 ft | 440 kts | 38° |
| 2026-05-01 15:10 | 52.88601 | 21.06566 | 33274 ft | 439 kts | 38° |
| 2026-05-01 15:11 | 52.95709 | 21.16116 | 33273 ft | 440 kts | 38° |
| 2026-05-01 15:12 | 53.00407 | 21.22452 | 33271 ft | 439 kts | 38° |
| 2026-05-01 15:12 | 53.07510 | 21.32065 | 33269 ft | 439 kts | 38° |
| 2026-05-01 15:14 | 53.19272 | 21.48076 | 33275 ft | 440 kts | 38° |
| 2026-05-01 15:14 | 53.26333 | 21.57745 | 33274 ft | 440 kts | 38° |
| 2026-05-01 15:15 | 53.35734 | 21.70684 | 33272 ft | 441 kts | 38° |
| 2026-05-01 15:16 | 53.45156 | 21.83729 | 33269 ft | 441 kts | 38° |
| 2026-05-01 15:18 | 53.56860 | 22.00043 | 33262 ft | 439 kts | 38° |
| 2026-05-01 15:19 | 53.66240 | 22.13205 | 33261 ft | 441 kts | 38° |
| 2026-05-01 15:19 | 53.73269 | 22.23120 | 33262 ft | 441 kts | 38° |
| 2026-05-01 15:20 | 53.80291 | 22.33070 | 33264 ft | 439 kts | 38° |
| 2026-05-01 15:21 | 53.84947 | 22.39692 | 33270 ft | 439 kts | 38° |
| 2026-05-01 15:21 | 53.89612 | 22.46347 | 33271 ft | 440 kts | 38° |
| 2026-05-01 15:22 | 53.96603 | 22.56357 | 33274 ft | 441 kts | 38° |
| 2026-05-01 15:22 | 54.01265 | 22.63060 | 33271 ft | 440 kts | 38° |
| 2026-05-01 15:23 | 54.05917 | 22.69767 | 33276 ft | 440 kts | 39° |
| 2026-05-01 15:23 | 54.10562 | 22.76484 | 33276 ft | 440 kts | 39° |
| 2026-05-01 15:24 | 54.15211 | 22.83227 | 33285 ft | 442 kts | 39° |
| 2026-05-01 15:24 | 54.19864 | 22.89998 | 33285 ft | 440 kts | 39° |
| 2026-05-01 15:25 | 54.24515 | 22.96786 | 33281 ft | 441 kts | 39° |
| 2026-05-01 15:25 | 54.28871 | 23.04113 | 33271 ft | 444 kts | 49° |
| 2026-05-01 15:26 | 54.31994 | 23.13280 | 33266 ft | 453 kts | 63° |
| 2026-05-01 15:26 | 54.34206 | 23.23381 | 33266 ft | 454 kts | 65° |
| 2026-05-01 15:27 | 54.36327 | 23.33468 | 33262 ft | 453 kts | 65° |
| 2026-05-01 15:28 | 54.39483 | 23.48821 | 33260 ft | 456 kts | 65° |
| 2026-05-01 15:28 | 54.41545 | 23.59001 | 33261 ft | 453 kts | 65° |
| 2026-05-01 15:29 | 54.44632 | 23.74388 | 33264 ft | 454 kts | 66° |
| 2026-05-01 15:30 | 54.48697 | 23.94873 | 33262 ft | 455 kts | 66° |
| 2026-05-01 15:31 | 54.54720 | 24.25651 | 33265 ft | 453 kts | 66° |
| 2026-05-01 15:32 | 54.58683 | 24.46177 | 33262 ft | 452 kts | 66° |
| 2026-05-01 15:34 | 54.64572 | 24.77088 | 33257 ft | 453 kts | 66° |